Pagina principală
METAR-TAF:

METAR-TAF

Aeroporturi :

Elk Valley

Sparwood, Columbia Britanică, Canada

Latitudine: 49-45N, longitudine: 114-53W, elevație: 1138 m

Observații meteo curente

Raportul a fost făcut în urmă cu 49 de minute, la 22:00 UTC
Vânt 7 kt de la Sud, variabil între Est/Sud-est și Sud/Sud-vest
Temperatură 24°C
Umiditate 29%
Presiune 1013 hPa
Vizibilitate: 32.2 km
Nori fragmentați la o înălțime de 10000 picior

METAR: CWSW 222200Z 18007KT 120V200 20SM BKN100 24/05 A2992 RMK AC7 ACSL SE-S SLP124 DENSITY ALT 5700FT

Ora: 16:49 (22:49 UTC)


TAF: lipsă

Observații și prognoze meteo pentru peste 4.000 de aeroporturi (rapoarte METAR și TAF).

Stațiile disponibile sunt reprezentate pe hartă prin puncte galbene și roșii.

Țineți indicatorul mouse-ului pe punctul dorit pentru a vedea denumirea stației.

Apoi, faceți clic pentru a vedea observațiile și prognozele meteorologice.

Pentru a schimba harta: Pentru mărire, faceți clic pe butoanele verzi cu cruce neagră; pentru micșorare, pe butonul verde cu o liniuță; pentru hărți învecinate, pe săgețile verzi.


METAR-TAF: